sensor_id;sensor_type;location;lat;lon;timestamp;pressure;altitude;pressure_sealevel;temperature;humidity
36726;BME280;44936;52.086;5.150;2023-12-28T00:01:05;101509.09;;;10.79;100.00
36726;BME280;44936;52.086;5.150;2023-12-28T00:03:30;101516.84;;;10.70;100.00
36726;BME280;44936;52.086;5.150;2023-12-28T00:05:55;101529.97;;;10.70;100.00
36726;BME280;44936;52.086;5.150;2023-12-28T00:08:21;101513.38;;;10.74;100.00
36726;BME280;44936;52.086;5.150;2023-12-28T00:10:46;101536.97;;;10.71;100.00
36726;BME280;44936;52.086;5.150;2023-12-28T00:13:11;101516.91;;;10.77;100.00
36726;BME280;44936;52.086;5.150;2023-12-28T00:15:37;101529.25;;;10.85;100.00
36726;BME280;44936;52.086;5.150;2023-12-28T00:18:02;101528.25;;;10.75;100.00
36726;BME280;44936;52.086;5.150;2023-12-28T00:20:28;101495.75;;;10.62;100.00
36726;BME280;44936;52.086;5.150;2023-12-28T00:22:54;101521.50;;;10.95;100.00
36726;BME280;44936;52.086;5.150;2023-12-28T00:25:19;101550.13;;;10.77;100.00
36726;BME280;44936;52.086;5.150;2023-12-28T00:27:44;101548.47;;;10.82;100.00
36726;BME280;44936;52.086;5.150;2023-12-28T00:30:11;101548.50;;;10.84;100.00
36726;BME280;44936;52.086;5.150;2023-12-28T00:32:37;101551.94;;;10.78;100.00
36726;BME280;44936;52.086;5.150;2023-12-28T00:35:02;101536.03;;;10.67;100.00
36726;BME280;44936;52.086;5.150;2023-12-28T00:37:27;101545.78;;;10.77;100.00
36726;BME280;44936;52.086;5.150;2023-12-28T00:39:53;101553.59;;;10.73;100.00
36726;BME280;44936;52.086;5.150;2023-12-28T00:42:20;101549.22;;;10.73;100.00
36726;BME280;44936;52.086;5.150;2023-12-28T00:44:46;101546.47;;;10.64;100.00
36726;BME280;44936;52.086;5.150;2023-12-28T00:47:11;101562.34;;;10.73;100.00
36726;BME280;44936;52.086;5.150;2023-12-28T00:49:36;101558.88;;;10.76;100.00
36726;BME280;44936;52.086;5.150;2023-12-28T00:52:02;101564.81;;;10.61;100.00
36726;BME280;44936;52.086;5.150;2023-12-28T00:54:27;101567.59;;;10.73;100.00
36726;BME280;44936;52.086;5.150;2023-12-28T00:56:53;101559.47;;;10.55;100.00
36726;BME280;44936;52.086;5.150;2023-12-28T00:59:18;101561.25;;;10.59;100.00
36726;BME280;44936;52.086;5.150;2023-12-28T01:01:43;101561.31;;;10.62;100.00
36726;BME280;44936;52.086;5.150;2023-12-28T01:04:12;101551.63;;;10.58;100.00
36726;BME280;44936;52.086;5.150;2023-12-28T01:06:37;101542.63;;;10.39;100.00
36726;BME280;44936;52.086;5.150;2023-12-28T01:09:02;101556.91;;;10.60;100.00
36726;BME280;44936;52.086;5.150;2023-12-28T01:11:28;101540.22;;;10.53;100.00
36726;BME280;44936;52.086;5.150;2023-12-28T01:13:53;101563.84;;;10.55;100.00
36726;BME280;44936;52.086;5.150;2023-12-28T01:16:18;101561.19;;;10.53;100.00
36726;BME280;44936;52.086;5.150;2023-12-28T01:18:44;101565.59;;;10.54;100.00
36726;BME280;44936;52.086;5.150;2023-12-28T01:21:09;101566.38;;;10.50;100.00
36726;BME280;44936;52.086;5.150;2023-12-28T01:23:34;101572.44;;;10.44;100.00
36726;BME280;44936;52.086;5.150;2023-12-28T01:26:00;101581.91;;;10.36;100.00
36726;BME280;44936;52.086;5.150;2023-12-28T01:28:26;101558.25;;;10.33;100.00
36726;BME280;44936;52.086;5.150;2023-12-28T01:30:51;101570.56;;;10.36;100.00
36726;BME280;44936;52.086;5.150;2023-12-28T01:33:16;101572.38;;;10.41;100.00
36726;BME280;44936;52.086;5.150;2023-12-28T01:35:42;101560.94;;;10.36;100.00
36726;BME280;44936;52.086;5.150;2023-12-28T01:38:07;101554.81;;;10.36;100.00
36726;BME280;44936;52.086;5.150;2023-12-28T01:40:32;101564.47;;;10.38;100.00
36726;BME280;44936;52.086;5.150;2023-12-28T01:42:58;101571.28;;;10.27;100.00
36726;BME280;44936;52.086;5.150;2023-12-28T01:45:23;101574.78;;;10.28;100.00
36726;BME280;44936;52.086;5.150;2023-12-28T01:47:50;101584.66;;;10.42;100.00
36726;BME280;44936;52.086;5.150;2023-12-28T01:50:18;101576.72;;;10.39;100.00
36726;BME280;44936;52.086;5.150;2023-12-28T01:52:44;101574.91;;;10.34;100.00
36726;BME280;44936;52.086;5.150;2023-12-28T01:55:10;101578.28;;;10.28;100.00
36726;BME280;44936;52.086;5.150;2023-12-28T01:57:35;101587.09;;;10.33;100.00
36726;BME280;44936;52.086;5.150;2023-12-28T02:00:01;101573.19;;;10.37;100.00
36726;BME280;44936;52.086;5.150;2023-12-28T02:02:30;101579.22;;;10.32;100.00
36726;BME280;44936;52.086;5.150;2023-12-28T02:04:56;101569.47;;;10.23;100.00
36726;BME280;44936;52.086;5.150;2023-12-28T02:07:21;101572.00;;;10.18;100.00
36726;BME280;44936;52.086;5.150;2023-12-28T02:09:46;101590.53;;;10.29;100.00
36726;BME280;44936;52.086;5.150;2023-12-28T02:12:12;101581.69;;;10.24;100.00
36726;BME280;44936;52.086;5.150;2023-12-28T02:14:37;101572.16;;;10.26;100.00
36726;BME280;44936;52.086;5.150;2023-12-28T02:17:08;101570.59;;;10.39;100.00
36726;BME280;44936;52.086;5.150;2023-12-28T02:19:53;101574.03;;;10.35;100.00
36726;BME280;44936;52.086;5.150;2023-12-28T02:22:20;101575.94;;;10.45;100.00
36726;BME280;44936;52.086;5.150;2023-12-28T02:25:06;101558.44;;;10.44;100.00
36726;BME280;44936;52.086;5.150;2023-12-28T02:27:33;101557.56;;;10.45;100.00
36726;BME280;44936;52.086;5.150;2023-12-28T02:29:59;101555.00;;;10.49;100.00
36726;BME280;44936;52.086;5.150;2023-12-28T02:32:38;101555.09;;;10.56;100.00
36726;BME280;44936;52.086;5.150;2023-12-28T02:38:10;101570.84;;;10.56;100.00
36726;BME280;44936;52.086;5.150;2023-12-28T02:40:40;101547.06;;;10.43;100.00
36726;BME280;44936;52.086;5.150;2023-12-28T02:43:07;101548.84;;;10.44;100.00
36726;BME280;44936;52.086;5.150;2023-12-28T02:45:37;101552.50;;;10.59;100.00
36726;BME280;44936;52.086;5.150;2023-12-28T02:48:03;101567.22;;;10.47;100.00
36726;BME280;44936;52.086;5.150;2023-12-28T02:50:29;101535.84;;;10.54;100.00
36726;BME280;44936;52.086;5.150;2023-12-28T02:52:58;101525.34;;;10.54;100.00
36726;BME280;44936;52.086;5.150;2023-12-28T02:55:24;101529.75;;;10.55;100.00
36726;BME280;44936;52.086;5.150;2023-12-28T02:57:50;101533.06;;;10.43;100.00
36726;BME280;44936;52.086;5.150;2023-12-28T03:00:16;101530.53;;;10.50;100.00
36726;BME280;44936;52.086;5.150;2023-12-28T03:02:42;101527.91;;;10.50;100.00
36726;BME280;44936;52.086;5.150;2023-12-28T03:05:08;101552.34;;;10.46;100.00
36726;BME280;44936;52.086;5.150;2023-12-28T03:07:33;101540.88;;;10.38;100.00
36726;BME280;44936;52.086;5.150;2023-12-28T03:09:59;101550.63;;;10.48;100.00
36726;BME280;44936;52.086;5.150;2023-12-28T03:12:24;101531.59;;;10.63;100.00
36726;BME280;44936;52.086;5.150;2023-12-28T03:14:50;101532.47;;;10.61;100.00
36726;BME280;44936;52.086;5.150;2023-12-28T03:17:15;101563.94;;;10.61;100.00
36726;BME280;44936;52.086;5.150;2023-12-28T03:19:40;101542.88;;;10.58;100.00
36726;BME280;44936;52.086;5.150;2023-12-28T03:22:06;101541.16;;;10.60;100.00
36726;BME280;44936;52.086;5.150;2023-12-28T03:24:31;101526.16;;;10.51;100.00
36726;BME280;44936;52.086;5.150;2023-12-28T03:26:57;101548.97;;;10.55;100.00
36726;BME280;44936;52.086;5.150;2023-12-28T03:29:22;101542.94;;;10.61;100.00
36726;BME280;44936;52.086;5.150;2023-12-28T03:31:47;101522.88;;;10.66;100.00
36726;BME280;44936;52.086;5.150;2023-12-28T03:34:13;101515.78;;;10.59;100.00
36726;BME280;44936;52.086;5.150;2023-12-28T03:36:38;101517.41;;;10.50;100.00
36726;BME280;44936;52.086;5.150;2023-12-28T03:39:04;101509.66;;;10.58;100.00
36726;BME280;44936;52.086;5.150;2023-12-28T03:41:30;101517.53;;;10.57;100.00
36726;BME280;44936;52.086;5.150;2023-12-28T03:43:55;101506.19;;;10.59;100.00
36726;BME280;44936;52.086;5.150;2023-12-28T03:46:21;101519.22;;;10.52;100.00
36726;BME280;44936;52.086;5.150;2023-12-28T03:48:49;101517.38;;;10.46;100.00
36726;BME280;44936;52.086;5.150;2023-12-28T03:51:15;101513.84;;;10.42;100.00
36726;BME280;44936;52.086;5.150;2023-12-28T03:53:41;101512.97;;;10.43;100.00
36726;BME280;44936;52.086;5.150;2023-12-28T03:56:07;101520.75;;;10.37;100.00
36726;BME280;44936;52.086;5.150;2023-12-28T03:58:32;101527.88;;;10.47;100.00
36726;BME280;44936;52.086;5.150;2023-12-28T04:00:57;101530.28;;;10.32;100.00
36726;BME280;44936;52.086;5.150;2023-12-28T04:03:23;101531.22;;;10.36;100.00
36726;BME280;44936;52.086;5.150;2023-12-28T04:05:48;101536.44;;;10.34;100.00
36726;BME280;44936;52.086;5.150;2023-12-28T04:08:16;101531.19;;;10.34;100.00
36726;BME280;44936;52.086;5.150;2023-12-28T04:10:42;101543.38;;;10.31;100.00
36726;BME280;44936;52.086;5.150;2023-12-28T04:13:07;101519.00;;;10.36;100.00
36726;BME280;44936;52.086;5.150;2023-12-28T04:15:32;101511.91;;;10.32;100.00
36726;BME280;44936;52.086;5.150;2023-12-28T04:17:58;101521.59;;;10.36;100.00
36726;BME280;44936;52.086;5.150;2023-12-28T04:20:23;101522.50;;;10.37;100.00
36726;BME280;44936;52.086;5.150;2023-12-28T04:22:48;101505.75;;;10.29;100.00
36726;BME280;44936;52.086;5.150;2023-12-28T04:25:14;101527.78;;;10.41;100.00
36726;BME280;44936;52.086;5.150;2023-12-28T04:27:41;101526.88;;;10.39;100.00
36726;BME280;44936;52.086;5.150;2023-12-28T04:30:14;101512.16;;;10.47;100.00
36726;BME280;44936;52.086;5.150;2023-12-28T04:32:39;101529.72;;;10.52;100.00
36726;BME280;44936;52.086;5.150;2023-12-28T04:35:05;101511.28;;;10.50;100.00
36726;BME280;44936;52.086;5.150;2023-12-28T04:37:31;101513.97;;;10.52;100.00
36726;BME280;44936;52.086;5.150;2023-12-28T04:39:58;101522.88;;;10.66;100.00
36726;BME280;44936;52.086;5.150;2023-12-28T04:42:23;101498.41;;;10.67;100.00
36726;BME280;44936;52.086;5.150;2023-12-28T04:44:48;101516.78;;;10.67;100.00
36726;BME280;44936;52.086;5.150;2023-12-28T04:47:14;101505.53;;;10.75;100.00
36726;BME280;44936;52.086;5.150;2023-12-28T04:49:39;101499.28;;;10.66;100.00
36726;BME280;44936;52.086;5.150;2023-12-28T04:52:04;101500.22;;;10.71;100.00
36726;BME280;44936;52.086;5.150;2023-12-28T04:54:30;101491.59;;;10.78;100.00
36726;BME280;44936;52.086;5.150;2023-12-28T04:56:55;101500.13;;;10.63;100.00
36726;BME280;44936;52.086;5.150;2023-12-28T04:59:21;101509.84;;;10.70;100.00
36726;BME280;44936;52.086;5.150;2023-12-28T05:01:46;101499.38;;;10.73;100.00
36726;BME280;44936;52.086;5.150;2023-12-28T05:04:11;101511.59;;;10.70;100.00
36726;BME280;44936;52.086;5.150;2023-12-28T05:06:37;101518.53;;;10.68;100.00
36726;BME280;44936;52.086;5.150;2023-12-28T05:09:03;101504.63;;;10.72;100.00
36726;BME280;44936;52.086;5.150;2023-12-28T05:11:28;101496.84;;;10.78;100.00
36726;BME280;44936;52.086;5.150;2023-12-28T05:13:54;101494.22;;;10.81;100.00
36726;BME280;44936;52.086;5.150;2023-12-28T05:16:19;101496.75;;;10.72;100.00
36726;BME280;44936;52.086;5.150;2023-12-28T05:18:45;101517.72;;;10.72;100.00
36726;BME280;44936;52.086;5.150;2023-12-28T05:21:12;101495.88;;;10.71;100.00
36726;BME280;44936;52.086;5.150;2023-12-28T05:23:37;101514.25;;;10.73;100.00
36726;BME280;44936;52.086;5.150;2023-12-28T05:26:02;101501.13;;;10.73;100.00
36726;BME280;44936;52.086;5.150;2023-12-28T05:28:28;101525.59;;;10.70;100.00
36726;BME280;44936;52.086;5.150;2023-12-28T05:30:53;101510.00;;;10.84;100.00
36726;BME280;44936;52.086;5.150;2023-12-28T05:33:18;101512.56;;;10.78;100.00
36726;BME280;44936;52.086;5.150;2023-12-28T05:35:47;101502.22;;;10.92;100.00
36726;BME280;44936;52.086;5.150;2023-12-28T05:38:12;101480.25;;;10.84;100.00
36726;BME280;44936;52.086;5.150;2023-12-28T05:40:37;101509.88;;;10.75;100.00
36726;BME280;44936;52.086;5.150;2023-12-28T05:43:03;101512.81;;;10.98;100.00
36726;BME280;44936;52.086;5.150;2023-12-28T05:45:28;101511.81;;;10.88;100.00
36726;BME280;44936;52.086;5.150;2023-12-28T05:47:53;101493.41;;;10.85;100.00
36726;BME280;44936;52.086;5.150;2023-12-28T05:50:19;101517.88;;;10.84;100.00
36726;BME280;44936;52.086;5.150;2023-12-28T05:52:44;101476.75;;;10.82;100.00
36726;BME280;44936;52.086;5.150;2023-12-28T05:55:09;101481.13;;;10.81;100.00
36726;BME280;44936;52.086;5.150;2023-12-28T05:57:35;101525.81;;;10.89;100.00
36726;BME280;44936;52.086;5.150;2023-12-28T06:00:00;101509.25;;;10.93;100.00
36726;BME280;44936;52.086;5.150;2023-12-28T06:02:25;101469.50;;;10.62;100.00
36726;BME280;44936;52.086;5.150;2023-12-28T06:04:51;101516.34;;;11.01;100.00
36726;BME280;44936;52.086;5.150;2023-12-28T06:07:16;101451.94;;;10.55;100.00
36726;BME280;44936;52.086;5.150;2023-12-28T06:09:44;101488.09;;;10.79;100.00
36726;BME280;44936;52.086;5.150;2023-12-28T06:12:11;101496.19;;;10.96;100.00
36726;BME280;44936;52.086;5.150;2023-12-28T06:14:36;101515.22;;;10.81;100.00
36726;BME280;44936;52.086;5.150;2023-12-28T06:17:01;101479.28;;;10.77;100.00
36726;BME280;44936;52.086;5.150;2023-12-28T06:19:27;101545.19;;;10.98;100.00
36726;BME280;44936;52.086;5.150;2023-12-28T06:21:52;101493.38;;;10.84;100.00
36726;BME280;44936;52.086;5.150;2023-12-28T06:24:19;101523.31;;;10.96;100.00
36726;BME280;44936;52.086;5.150;2023-12-28T06:26:44;101527.88;;;11.14;100.00
36726;BME280;44936;52.086;5.150;2023-12-28T06:29:10;101516.44;;;11.09;100.00
36726;BME280;44936;52.086;5.150;2023-12-28T06:31:36;101534.63;;;10.95;100.00
36726;BME280;44936;52.086;5.150;2023-12-28T06:34:03;101542.50;;;10.95;100.00
36726;BME280;44936;52.086;5.150;2023-12-28T06:36:28;101535.47;;;10.90;100.00
36726;BME280;44936;52.086;5.150;2023-12-28T06:38:54;101546.13;;;11.03;100.00
36726;BME280;44936;52.086;5.150;2023-12-28T06:41:19;101547.75;;;10.94;100.00
36726;BME280;44936;52.086;5.150;2023-12-28T06:43:45;101535.56;;;10.97;100.00
36726;BME280;44936;52.086;5.150;2023-12-28T06:46:10;101550.38;;;10.95;100.00
36726;BME280;44936;52.086;5.150;2023-12-28T06:48:35;101549.56;;;10.96;100.00
36726;BME280;44936;52.086;5.150;2023-12-28T06:51:01;101586.19;;;10.90;100.00
36726;BME280;44936;52.086;5.150;2023-12-28T06:53:27;101532.00;;;10.95;100.00
36726;BME280;44936;52.086;5.150;2023-12-28T06:55:52;101509.13;;;10.85;100.00
36726;BME280;44936;52.086;5.150;2023-12-28T06:58:17;101532.00;;;10.95;100.00
36726;BME280;44936;52.086;5.150;2023-12-28T07:00:43;101561.75;;;10.94;100.00
36726;BME280;44936;52.086;5.150;2023-12-28T07:03:09;101547.63;;;10.86;100.00
36726;BME280;44936;52.086;5.150;2023-12-28T07:05:34;101514.25;;;10.73;100.00
36726;BME280;44936;52.086;5.150;2023-12-28T07:08:00;101545.19;;;10.97;100.00
36726;BME280;44936;52.086;5.150;2023-12-28T07:10:26;101556.19;;;10.70;100.00
36726;BME280;44936;52.086;5.150;2023-12-28T07:12:51;101576.22;;;10.63;100.00
36726;BME280;44936;52.086;5.150;2023-12-28T07:15:17;101568.34;;;10.63;100.00
36726;BME280;44936;52.086;5.150;2023-12-28T07:17:42;101552.47;;;10.54;100.00
36726;BME280;44936;52.086;5.150;2023-12-28T07:20:08;101566.69;;;10.70;100.00
36726;BME280;44936;52.086;5.150;2023-12-28T07:22:37;101584.22;;;10.74;100.00
36726;BME280;44936;52.086;5.150;2023-12-28T07:25:07;101548.94;;;10.52;100.00
36726;BME280;44936;52.086;5.150;2023-12-28T07:27:35;101570.09;;;10.63;100.00
36726;BME280;44936;52.086;5.150;2023-12-28T07:30:01;101605.16;;;10.69;100.00
36726;BME280;44936;52.086;5.150;2023-12-28T07:32:28;101600.59;;;10.56;100.00
36726;BME280;44936;52.086;5.150;2023-12-28T07:34:53;101591.25;;;10.76;100.00
36726;BME280;44936;52.086;5.150;2023-12-28T07:37:19;101583.22;;;10.66;100.00
36726;BME280;44936;52.086;5.150;2023-12-28T07:39:44;101601.63;;;10.67;100.00
36726;BME280;44936;52.086;5.150;2023-12-28T07:42:10;101619.09;;;10.67;100.00
36726;BME280;44936;52.086;5.150;2023-12-28T07:44:35;101614.72;;;10.66;100.00
36726;BME280;44936;52.086;5.150;2023-12-28T07:47:00;101623.47;;;10.66;100.00
36726;BME280;44936;52.086;5.150;2023-12-28T07:49:26;101630.53;;;10.70;100.00
36726;BME280;44936;52.086;5.150;2023-12-28T07:51:51;101626.31;;;10.80;100.00
36726;BME280;44936;52.086;5.150;2023-12-28T07:54:17;101629.66;;;10.70;100.00
36726;BME280;44936;52.086;5.150;2023-12-28T07:56:42;101606.78;;;10.61;100.00
36726;BME280;44936;52.086;5.150;2023-12-28T07:59:07;101622.84;;;10.83;100.00
36726;BME280;44936;52.086;5.150;2023-12-28T08:01:34;101631.44;;;10.74;100.00
36726;BME280;44936;52.086;5.150;2023-12-28T08:04:00;101638.56;;;10.81;100.00
36726;BME280;44936;52.086;5.150;2023-12-28T08:06:27;101622.94;;;10.90;100.00
36726;BME280;44936;52.086;5.150;2023-12-28T08:08:52;101595.69;;;10.81;100.00
36726;BME280;44936;52.086;5.150;2023-12-28T08:11:19;101631.56;;;10.82;100.00
36726;BME280;44936;52.086;5.150;2023-12-28T08:13:44;101625.69;;;10.98;100.00
36726;BME280;44936;52.086;5.150;2023-12-28T08:16:09;101631.75;;;10.95;100.00
36726;BME280;44936;52.086;5.150;2023-12-28T08:18:35;101638.75;;;10.95;100.00
36726;BME280;44936;52.086;5.150;2023-12-28T08:21:00;101627.28;;;10.87;100.00
36726;BME280;44936;52.086;5.150;2023-12-28T08:23:25;101612.56;;;10.99;100.00
36726;BME280;44936;52.086;5.150;2023-12-28T08:25:50;101633.66;;;11.05;100.00
36726;BME280;44936;52.086;5.150;2023-12-28T08:28:16;101646.66;;;10.96;100.00
36726;BME280;44936;52.086;5.150;2023-12-28T08:30:42;101628.31;;;10.99;100.00
36726;BME280;44936;52.086;5.150;2023-12-28T08:33:07;101641.47;;;11.01;100.00
36726;BME280;44936;52.086;5.150;2023-12-28T08:35:33;101655.59;;;11.11;100.00
36726;BME280;44936;52.086;5.150;2023-12-28T08:37:58;101631.00;;;11.04;100.00
36726;BME280;44936;52.086;5.150;2023-12-28T08:40:23;101669.59;;;11.10;100.00
36726;BME280;44936;52.086;5.150;2023-12-28T08:42:49;101653.59;;;10.91;100.00
36726;BME280;44936;52.086;5.150;2023-12-28T08:45:14;101645.13;;;11.12;100.00
36726;BME280;44936;52.086;5.150;2023-12-28T08:47:39;101642.25;;;10.95;100.00
36726;BME280;44936;52.086;5.150;2023-12-28T08:50:05;101651.22;;;11.11;100.00
36726;BME280;44936;52.086;5.150;2023-12-28T08:52:30;101667.78;;;11.05;100.00
36726;BME280;44936;52.086;5.150;2023-12-28T08:54:56;101648.44;;;10.97;100.00
36726;BME280;44936;52.086;5.150;2023-12-28T08:57:21;101672.22;;;11.10;100.00
36726;BME280;44936;52.086;5.150;2023-12-28T08:59:46;101679.94;;;10.99;100.00
36726;BME280;44936;52.086;5.150;2023-12-28T09:02:12;101641.56;;;11.07;100.00
36726;BME280;44936;52.086;5.150;2023-12-28T09:04:37;101666.09;;;11.09;100.00
36726;BME280;44936;52.086;5.150;2023-12-28T09:07:05;101657.31;;;11.09;100.00
36726;BME280;44936;52.086;5.150;2023-12-28T09:09:30;101644.22;;;11.10;100.00
36726;BME280;44936;52.086;5.150;2023-12-28T09:11:55;101649.47;;;11.10;100.00
36726;BME280;44936;52.086;5.150;2023-12-28T09:14:21;101663.53;;;11.14;100.00
36726;BME280;44936;52.086;5.150;2023-12-28T09:16:47;101651.25;;;11.13;100.00
36726;BME280;44936;52.086;5.150;2023-12-28T09:19:12;101659.94;;;11.05;100.00
36726;BME280;44936;52.086;5.150;2023-12-28T09:21:38;101693.13;;;11.03;100.00
36726;BME280;44936;52.086;5.150;2023-12-28T09:24:03;101667.00;;;11.13;100.00
36726;BME280;44936;52.086;5.150;2023-12-28T09:26:29;101659.31;;;11.25;100.00
36726;BME280;44936;52.086;5.150;2023-12-28T09:28:54;101663.72;;;11.29;100.00
36726;BME280;44936;52.086;5.150;2023-12-28T09:31:20;101663.75;;;11.30;100.00
36726;BME280;44936;52.086;5.150;2023-12-28T09:33:45;101663.81;;;11.37;100.00
36726;BME280;44936;52.086;5.150;2023-12-28T09:36:10;101656.59;;;11.19;100.00
36726;BME280;44936;52.086;5.150;2023-12-28T09:38:38;101682.28;;;11.40;100.00
36726;BME280;44936;52.086;5.150;2023-12-28T09:41:13;101666.66;;;11.53;100.00
36726;BME280;44936;52.086;5.150;2023-12-28T09:46:17;101666.59;;;11.47;100.00
36726;BME280;44936;52.086;5.150;2023-12-28T09:48:42;101660.41;;;11.44;100.00
36726;BME280;44936;52.086;5.150;2023-12-28T09:51:10;101670.94;;;11.45;100.00
36726;BME280;44936;52.086;5.150;2023-12-28T09:53:36;101664.00;;;11.50;100.00
36726;BME280;44936;52.086;5.150;2023-12-28T09:56:02;101671.94;;;11.56;100.00
36726;BME280;44936;52.086;5.150;2023-12-28T09:58:28;101686.16;;;11.71;100.00
36726;BME280;44936;52.086;5.150;2023-12-28T10:00:54;101682.44;;;11.55;100.00
36726;BME280;44936;52.086;5.150;2023-12-28T10:03:21;101675.41;;;11.52;100.00
36726;BME280;44936;52.086;5.150;2023-12-28T10:05:47;101696.16;;;11.31;100.00
36726;BME280;44936;52.086;5.150;2023-12-28T10:08:13;101683.94;;;11.34;100.00
36726;BME280;44936;52.086;5.150;2023-12-28T10:10:40;101687.31;;;11.24;100.00
36726;BME280;44936;52.086;5.150;2023-12-28T10:13:10;101692.84;;;11.46;100.00
36726;BME280;44936;52.086;5.150;2023-12-28T10:15:36;101692.94;;;11.55;100.00
36726;BME280;44936;52.086;5.150;2023-12-28T10:18:03;101695.47;;;11.47;100.00
36726;BME280;44936;52.086;5.150;2023-12-28T10:20:29;101678.81;;;11.45;100.00
36726;BME280;44936;52.086;5.150;2023-12-28T10:22:54;101693.66;;;11.40;100.00
36726;BME280;44936;52.086;5.150;2023-12-28T10:25:20;101681.44;;;11.45;100.00
36726;BME280;44936;52.086;5.150;2023-12-28T10:27:45;101641.81;;;11.27;100.00
36726;BME280;44936;52.086;5.150;2023-12-28T10:30:11;101691.06;;;11.43;100.00
36726;BME280;44936;52.086;5.150;2023-12-28T10:32:40;101680.78;;;11.60;100.00
36726;BME280;44936;52.086;5.150;2023-12-28T10:35:05;101699.16;;;11.60;100.00
36726;BME280;44936;52.086;5.150;2023-12-28T10:37:32;101705.28;;;11.59;100.00
36726;BME280;44936;52.086;5.150;2023-12-28T10:39:59;101687.66;;;11.52;100.00
36726;BME280;44936;52.086;5.150;2023-12-28T10:42:31;101690.09;;;11.38;100.00
36726;BME280;44936;52.086;5.150;2023-12-28T10:45:04;101689.31;;;11.45;100.00
36726;BME280;44936;52.086;5.150;2023-12-28T10:47:37;101679.69;;;11.46;100.00
36726;BME280;44936;52.086;5.150;2023-12-28T10:50:04;101698.22;;;11.55;100.00
36726;BME280;44936;52.086;5.150;2023-12-28T10:52:31;101679.59;;;11.37;100.00
36726;BME280;44936;52.086;5.150;2023-12-28T10:57:52;101669.22;;;11.47;100.00
36726;BME280;44936;52.086;5.150;2023-12-28T11:00:23;101679.72;;;11.47;100.00
36726;BME280;44936;52.086;5.150;2023-12-28T11:02:52;101689.56;;;11.65;100.00
36726;BME280;44936;52.086;5.150;2023-12-28T11:05:22;101682.56;;;11.64;100.00
36726;BME280;44936;52.086;5.150;2023-12-28T11:07:49;101680.69;;;11.54;100.00
36726;BME280;44936;52.086;5.150;2023-12-28T11:10:16;101674.63;;;11.59;100.00
36726;BME280;44936;52.086;5.150;2023-12-28T11:12:43;101673.91;;;11.73;100.00
36726;BME280;44936;52.086;5.150;2023-12-28T11:15:09;101669.28;;;11.53;100.00
36726;BME280;44936;52.086;5.150;2023-12-28T11:17:37;101677.41;;;11.75;100.00
36726;BME280;44936;52.086;5.150;2023-12-28T11:20:03;101690.41;;;11.59;100.00
36726;BME280;44936;52.086;5.150;2023-12-28T11:22:30;101673.88;;;11.68;100.00
36726;BME280;44936;52.086;5.150;2023-12-28T11:24:56;101672.13;;;11.69;100.00
36726;BME280;44936;52.086;5.150;2023-12-28T11:27:22;101665.00;;;11.60;100.00
36726;BME280;44936;52.086;5.150;2023-12-28T11:29:48;101667.63;;;11.58;100.00
36726;BME280;44936;52.086;5.150;2023-12-28T11:32:14;101656.34;;;11.69;100.00
36726;BME280;44936;52.086;5.150;2023-12-28T11:34:40;101664.22;;;11.69;100.00
36726;BME280;44936;52.086;5.150;2023-12-28T11:37:13;101651.25;;;11.81;100.00
36726;BME280;44936;52.086;5.150;2023-12-28T11:39:45;101662.59;;;11.78;100.00
36726;BME280;44936;52.086;5.150;2023-12-28T11:42:10;101660.94;;;11.85;100.00
36726;BME280;44936;52.086;5.150;2023-12-28T11:44:43;101666.00;;;11.73;100.00
36726;BME280;44936;52.086;5.150;2023-12-28T11:47:16;101683.28;;;11.52;100.00
36726;BME280;44936;52.086;5.150;2023-12-28T11:49:42;101659.69;;;11.57;100.00
36726;BME280;44936;52.086;5.150;2023-12-28T11:52:11;101659.06;;;11.78;100.00
36726;BME280;44936;52.086;5.150;2023-12-28T11:54:49;101643.38;;;11.81;100.00
36726;BME280;44936;52.086;5.150;2023-12-28T11:57:15;101648.81;;;11.98;100.00
36726;BME280;44936;52.086;5.150;2023-12-28T11:59:41;101624.63;;;11.53;100.00
36726;BME280;44936;52.086;5.150;2023-12-28T12:02:06;101646.88;;;11.83;100.00
36726;BME280;44936;52.086;5.150;2023-12-28T12:04:34;101646.06;;;11.87;100.00
36726;BME280;44936;52.086;5.150;2023-12-28T12:07:01;101652.13;;;11.83;100.00
36726;BME280;44936;52.086;5.150;2023-12-28T12:09:28;101647.03;;;11.95;100.00
36726;BME280;44936;52.086;5.150;2023-12-28T12:11:53;101643.59;;;12.02;100.00
36726;BME280;44936;52.086;5.150;2023-12-28T12:14:19;101626.25;;;12.19;100.00
36726;BME280;44936;52.086;5.150;2023-12-28T12:16:44;101620.78;;;12.00;100.00
36726;BME280;44936;52.086;5.150;2023-12-28T12:19:10;101629.53;;;11.97;100.00
36726;BME280;44936;52.086;5.150;2023-12-28T12:21:36;101607.69;;;12.06;100.00
36726;BME280;44936;52.086;5.150;2023-12-28T12:24:01;101644.41;;;11.95;100.00
36726;BME280;44936;52.086;5.150;2023-12-28T12:26:28;101609.53;;;12.17;100.00
36726;BME280;44936;52.086;5.150;2023-12-28T12:28:55;101621.66;;;12.00;100.00
36726;BME280;44936;52.086;5.150;2023-12-28T12:31:21;101596.28;;;12.05;100.00
36726;BME280;44936;52.086;5.150;2023-12-28T12:33:47;101613.91;;;12.15;100.00
36726;BME280;44936;52.086;5.150;2023-12-28T12:36:12;101624.50;;;12.22;100.00
36726;BME280;44936;52.086;5.150;2023-12-28T12:38:38;101620.81;;;12.04;100.00
36726;BME280;44936;52.086;5.150;2023-12-28T12:41:03;101611.81;;;11.81;100.00
36726;BME280;44936;52.086;5.150;2023-12-28T12:43:29;101617.16;;;11.87;100.00